Time;durP1;ratioP1;P1;durP2;ratioP2;P2;SDS_P1;SDS_P2;PMS_P1;PMS_P2;Temp;Humidity;BMP_temperature;BMP_pressure;BME280_temperature;BME280_humidity;BME280_pressure;Samples;Min_cycle;Max_cycle;Signal;HPM_P1;HPM_P2
2023/07/27 00:00:24;;;;;;;;;;;20.40;61.10;;;;;;5059229;28;19920;-53
2023/07/27 00:02:49;;;;;;;;;;;20.40;61.20;;;;;;5055649;28;19913;-53
2023/07/27 00:05:15;;;;;;;;;;;20.40;61.30;;;;;;5051512;28;19920;-53
2023/07/27 00:07:40;;;;;;;;;;;20.40;61.30;;;;;;5050418;28;19913;-53
2023/07/27 00:10:06;;;;;;;;;;;20.40;61.30;;;;;;5051940;28;19921;-53
2023/07/27 00:12:31;;;;;;;;;;;20.50;61.50;;;;;;5066376;28;19923;-53
2023/07/27 00:14:57;;;;;;;;;;;20.50;61.40;;;;;;5055071;28;19913;-53
2023/07/27 00:17:22;;;;;;;;;;;20.40;61.40;;;;;;5052678;28;19913;-53
2023/07/27 00:19:48;;;;;;;;;;;20.40;61.50;;;;;;5058950;28;19918;-53
2023/07/27 00:22:13;;;;;;;;;;;20.40;61.60;;;;;;5065849;28;20010;-53
2023/07/27 00:24:38;;;;;;;;;;;20.40;61.80;;;;;;5055651;28;20012;-53
2023/07/27 00:27:04;;;;;;;;;;;20.30;61.70;;;;;;5055387;28;19916;-52
2023/07/27 00:29:29;;;;;;;;;;;20.30;61.80;;;;;;5060556;28;19990;-53
2023/07/27 00:31:55;;;;;;;;;;;20.30;61.90;;;;;;5063298;28;20020;-53
2023/07/27 00:34:20;;;;;;;;;;;20.20;61.90;;;;;;5050791;28;20409;-53
2023/07/27 00:36:46;;;;;;;;;;;20.20;62.10;;;;;;5063793;28;20391;-53
2023/07/27 00:39:12;;;;;;;;;;;20.10;62.90;;;;;;5051750;28;20304;-53
2023/07/27 00:41:40;;;;;;;;;;;20.20;62.30;;;;;;5063505;28;20353;-53
2023/07/27 00:44:06;;;;;;;;;;;20.10;62.20;;;;;;5050296;28;20291;-53
2023/07/27 00:46:32;;;;;;;;;;;20.10;62.30;;;;;;5053014;28;19928;-53
2023/07/27 00:48:57;;;;;;;;;;;20.10;62.30;;;;;;5064736;28;20285;-53
2023/07/27 00:51:23;;;;;;;;;;;20.10;62.20;;;;;;5065919;28;20069;-53
2023/07/27 00:53:48;;;;;;;;;;;20.20;62.30;;;;;;5055674;28;19916;-53
2023/07/27 00:56:14;;;;;;;;;;;20.20;62.30;;;;;;5059713;28;20019;-53
2023/07/27 00:58:39;;;;;;;;;;;20.20;62.20;;;;;;5065077;28;19913;-53
2023/07/27 01:01:05;;;;;;;;;;;20.20;62.30;;;;;;5057619;28;19912;-53
2023/07/27 01:03:30;;;;;;;;;;;20.20;62.30;;;;;;5070030;28;19912;-53
2023/07/27 01:05:55;;;;;;;;;;;20.20;62.40;;;;;;5058322;28;19920;-53
2023/07/27 01:08:21;;;;;;;;;;;20.20;62.30;;;;;;5053069;28;19980;-53
2023/07/27 01:11:02;;;;;;;;;;;20.30;62.40;;;;;;5065815;28;19920;-53
2023/07/27 01:13:36;;;;;;;;;;;20.20;62.30;;;;;;5053999;28;20432;-53
2023/07/27 01:16:05;;;;;;;;;;;20.20;62.40;;;;;;5062725;28;19912;-53
2023/07/27 01:18:49;;;;;;;;;;;20.20;62.60;;;;;;5057946;28;19913;-53
2023/07/27 01:21:20;;;;;;;;;;;20.20;62.80;;;;;;5055027;28;19913;-53
2023/07/27 01:23:51;;;;;;;;;;;20.20;63.60;;;;;;5053123;28;20410;-53
2023/07/27 01:26:26;;;;;;;;;;;20.20;63.00;;;;;;5063825;28;19913;-53
2023/07/27 01:28:54;;;;;;;;;;;20.10;63.30;;;;;;5054405;28;19975;-53
2023/07/27 01:31:23;;;;;;;;;;;20.00;63.40;;;;;;5061538;28;19994;-53
2023/07/27 01:33:50;;;;;;;;;;;20.10;63.50;;;;;;5056778;28;20007;-53
2023/07/27 01:36:20;;;;;;;;;;;20.10;63.50;;;;;;5068603;28;19913;-53
2023/07/27 01:38:46;;;;;;;;;;;20.10;63.50;;;;;;5058949;28;19916;-53
2023/07/27 01:41:11;;;;;;;;;;;20.10;63.40;;;;;;5072472;28;20062;-53
2023/07/27 01:43:38;;;;;;;;;;;20.10;63.30;;;;;;5055454;28;20288;-53
2023/07/27 01:46:04;;;;;;;;;;;20.20;63.30;;;;;;5073182;28;19913;-53
2023/07/27 01:48:30;;;;;;;;;;;20.20;63.30;;;;;;5073514;28;20000;-53
2023/07/27 01:50:55;;;;;;;;;;;20.20;63.30;;;;;;5065020;28;19967;-53
2023/07/27 01:53:21;;;;;;;;;;;20.20;63.40;;;;;;5052923;28;19917;-53
2023/07/27 01:55:46;;;;;;;;;;;20.20;63.40;;;;;;5054955;28;20327;-53
2023/07/27 01:58:13;;;;;;;;;;;20.20;63.40;;;;;;5064499;28;19998;-53
2023/07/27 02:00:38;;;;;;;;;;;20.10;63.50;;;;;;5055274;28;20316;-53
2023/07/27 02:03:04;;;;;;;;;;;20.10;63.60;;;;;;5057817;28;19923;-53
2023/07/27 02:05:29;;;;;;;;;;;20.10;63.60;;;;;;5061564;28;20365;-53
2023/07/27 02:07:55;;;;;;;;;;;20.10;63.80;;;;;;5055794;28;20335;-53
2023/07/27 02:10:20;;;;;;;;;;;20.10;63.90;;;;;;5059068;28;19920;-53
2023/07/27 02:12:47;;;;;;;;;;;20.10;63.80;;;;;;5065493;28;20365;-53
2023/07/27 02:15:23;;;;;;;;;;;20.00;63.90;;;;;;5055782;28;19925;-53
2023/07/27 02:17:49;;;;;;;;;;;20.10;64.00;;;;;;5060022;28;19912;-53
2023/07/27 02:20:16;;;;;;;;;;;20.10;63.90;;;;;;5048866;28;19919;-53
2023/07/27 02:22:42;;;;;;;;;;;20.10;63.90;;;;;;5070037;28;20376;-53
2023/07/27 02:25:07;;;;;;;;;;;20.10;64.10;;;;;;5059961;28;19970;-53
2023/07/27 02:27:33;;;;;;;;;;;20.00;64.00;;;;;;5067824;28;19912;-53
2023/07/27 02:29:59;;;;;;;;;;;20.00;64.00;;;;;;5074190;28;20372;-53
2023/07/27 02:32:25;;;;;;;;;;;20.10;64.00;;;;;;5064546;28;20007;-53
2023/07/27 02:34:50;;;;;;;;;;;20.10;63.90;;;;;;5061693;28;19999;-53
2023/07/27 02:37:15;;;;;;;;;;;20.10;63.90;;;;;;5071867;28;19919;-53
2023/07/27 02:39:41;;;;;;;;;;;20.10;63.90;;;;;;5067397;28;20383;-53
2023/07/27 02:42:06;;;;;;;;;;;20.10;64.00;;;;;;5058553;28;20367;-52
2023/07/27 02:44:32;;;;;;;;;;;20.10;64.00;;;;;;5057643;28;20304;-53
2023/07/27 02:46:57;;;;;;;;;;;20.00;64.00;;;;;;5060442;28;19924;-53
2023/07/27 02:49:23;;;;;;;;;;;20.10;64.00;;;;;;5060654;28;19966;-52
2023/07/27 02:51:48;;;;;;;;;;;20.10;64.20;;;;;;5052359;28;19920;-53
2023/07/27 02:54:14;;;;;;;;;;;20.00;64.00;;;;;;5060763;28;20007;-53
2023/07/27 02:56:39;;;;;;;;;;;20.00;64.10;;;;;;5065742;28;19913;-53
2023/07/27 02:59:04;;;;;;;;;;;20.00;64.00;;;;;;5054660;28;19915;-53
2023/07/27 03:01:30;;;;;;;;;;;20.00;63.90;;;;;;5060654;28;19924;-54
2023/07/27 03:03:55;;;;;;;;;;;20.00;63.90;;;;;;5060442;28;19912;-54
2023/07/27 03:06:21;;;;;;;;;;;20.00;63.90;;;;;;5059093;28;19917;-53
2023/07/27 03:08:46;;;;;;;;;;;20.00;63.90;;;;;;5055806;28;19967;-54
2023/07/27 03:11:12;;;;;;;;;;;20.00;64.10;;;;;;5057050;28;19928;-54
2023/07/27 03:13:37;;;;;;;;;;;20.00;63.80;;;;;;5063516;28;19916;-54
2023/07/27 03:16:03;;;;;;;;;;;20.00;63.70;;;;;;5055307;28;20360;-53
2023/07/27 03:18:29;;;;;;;;;;;20.00;63.70;;;;;;5052619;28;19935;-53
2023/07/27 03:20:54;;;;;;;;;;;20.00;63.80;;;;;;5052842;28;19913;-53
2023/07/27 03:23:20;;;;;;;;;;;20.00;63.80;;;;;;5067005;28;19917;-53
2023/07/27 03:25:45;;;;;;;;;;;20.00;63.70;;;;;;5061927;28;19909;-54
2023/07/27 03:28:11;;;;;;;;;;;20.00;63.70;;;;;;5072785;28;19965;-54
2023/07/27 03:30:38;;;;;;;;;;;20.00;63.70;;;;;;5064736;28;19969;-53
2023/07/27 03:33:03;;;;;;;;;;;20.00;63.60;;;;;;5071388;28;19919;-53
2023/07/27 03:35:29;;;;;;;;;;;20.00;63.60;;;;;;5053804;28;19913;-53
2023/07/27 03:37:54;;;;;;;;;;;20.00;63.60;;;;;;5051385;28;19917;-54
2023/07/27 03:40:20;;;;;;;;;;;20.00;63.60;;;;;;5051096;28;19959;-54
2023/07/27 03:42:45;;;;;;;;;;;20.00;63.60;;;;;;5062720;28;19912;-54
2023/07/27 03:45:12;;;;;;;;;;;20.00;63.60;;;;;;5069816;28;19940;-53
2023/07/27 03:47:38;;;;;;;;;;;20.00;63.70;;;;;;5062674;28;19998;-54
2023/07/27 03:50:03;;;;;;;;;;;20.00;63.50;;;;;;5052124;28;19963;-53
2023/07/27 03:52:29;;;;;;;;;;;20.00;63.50;;;;;;5052274;28;19924;-54
2023/07/27 03:54:54;;;;;;;;;;;20.00;63.30;;;;;;5056345;28;20329;-53
2023/07/27 03:57:20;;;;;;;;;;;20.00;63.30;;;;;;5053077;28;20246;-53
2023/07/27 03:59:45;;;;;;;;;;;20.00;63.30;;;;;;5055718;28;19938;-53
2023/07/27 04:02:11;;;;;;;;;;;20.00;63.20;;;;;;5066524;28;20011;-54
2023/07/27 04:04:36;;;;;;;;;;;20.00;63.20;;;;;;5070769;28;19935;-53
2023/07/27 04:07:02;;;;;;;;;;;20.10;63.20;;;;;;5072543;28;19974;-53
2023/07/27 04:09:27;;;;;;;;;;;20.00;63.00;;;;;;5061031;28;19970;-54
2023/07/27 04:11:53;;;;;;;;;;;20.00;63.00;;;;;;5052778;28;20007;-53
2023/07/27 04:14:18;;;;;;;;;;;20.00;63.00;;;;;;5059132;28;19948;-53
2023/07/27 04:16:43;;;;;;;;;;;20.00;63.20;;;;;;5070191;28;19913;-54
2023/07/27 04:19:09;;;;;;;;;;;20.00;63.10;;;;;;5068857;28;20316;-53
2023/07/27 04:21:34;;;;;;;;;;;20.00;63.90;;;;;;5070756;28;20341;-53
2023/07/27 04:24:00;;;;;;;;;;;20.00;63.10;;;;;;5052549;28;19913;-53
2023/07/27 04:26:25;;;;;;;;;;;20.00;63.20;;;;;;5054533;28;19954;-53
2023/07/27 04:28:51;;;;;;;;;;;20.00;63.20;;;;;;5053765;28;20643;-53
2023/07/27 04:31:16;;;;;;;;;;;20.00;63.30;;;;;;5059312;28;20007;-53
2023/07/27 04:33:42;;;;;;;;;;;20.00;63.20;;;;;;5057792;28;19923;-54
2023/07/27 04:36:07;;;;;;;;;;;20.00;63.20;;;;;;5054780;28;19917;-53
2023/07/27 04:38:32;;;;;;;;;;;20.00;63.20;;;;;;5062238;28;19913;-53
2023/07/27 04:40:58;;;;;;;;;;;20.00;63.30;;;;;;5052222;28;19909;-53
2023/07/27 04:43:24;;;;;;;;;;;20.00;63.20;;;;;;5051888;28;19912;-54
2023/07/27 04:45:49;;;;;;;;;;;20.00;63.20;;;;;;5055901;28;19941;-53
2023/07/27 04:48:14;;;;;;;;;;;20.00;63.10;;;;;;5057136;28;19928;-53
2023/07/27 04:50:40;;;;;;;;;;;20.00;63.10;;;;;;5053364;28;19935;-53
2023/07/27 04:53:05;;;;;;;;;;;20.00;63.10;;;;;;5068790;28;19913;-54
2023/07/27 04:55:31;;;;;;;;;;;20.10;63.20;;;;;;5057370;28;19995;-53
2023/07/27 04:57:56;;;;;;;;;;;20.10;63.20;;;;;;5053461;28;19913;-53
2023/07/27 05:00:22;;;;;;;;;;;20.00;63.20;;;;;;5051012;28;19951;-53
2023/07/27 05:02:47;;;;;;;;;;;20.00;63.30;;;;;;5059803;28;20387;-53
2023/07/27 05:05:13;;;;;;;;;;;20.00;63.30;;;;;;5052318;28;20435;-53
2023/07/27 05:07:38;;;;;;;;;;;20.00;63.40;;;;;;5052584;28;20483;-53
2023/07/27 05:10:04;;;;;;;;;;;20.00;63.30;;;;;;5051345;28;19912;-53
2023/07/27 05:12:31;;;;;;;;;;;20.00;63.30;;;;;;5059658;28;19970;-53
2023/07/27 05:14:58;;;;;;;;;;;20.00;63.20;;;;;;5056356;28;19912;-53
2023/07/27 05:17:23;;;;;;;;;;;20.10;63.20;;;;;;5071660;28;19909;-53
2023/07/27 05:19:48;;;;;;;;;;;20.10;63.20;;;;;;5068281;28;20301;-54
2023/07/27 05:22:17;;;;;;;;;;;20.10;63.20;;;;;;5055566;28;20371;-53
2023/07/27 05:24:42;;;;;;;;;;;20.10;63.10;;;;;;5047955;28;19923;-53
2023/07/27 05:27:08;;;;;;;;;;;20.10;63.10;;;;;;5057677;28;20318;-53
2023/07/27 05:29:33;;;;;;;;;;;20.10;63.10;;;;;;5054285;28;19919;-52
2023/07/27 05:31:59;;;;;;;;;;;20.10;63.10;;;;;;5052621;28;19978;-52
2023/07/27 05:34:24;;;;;;;;;;;20.10;63.00;;;;;;5052781;28;19999;-53
2023/07/27 05:36:49;;;;;;;;;;;20.20;63.10;;;;;;5054351;28;19920;-53
2023/07/27 05:39:15;;;;;;;;;;;20.20;63.10;;;;;;5063836;28;19912;-53
2023/07/27 05:41:41;;;;;;;;;;;20.10;63.10;;;;;;5057709;28;19958;-53
2023/07/27 05:44:06;;;;;;;;;;;20.10;63.10;;;;;;5067435;28;19912;-53
2023/07/27 05:46:32;;;;;;;;;;;20.10;63.10;;;;;;5068080;28;20392;-53
2023/07/27 05:48:57;;;;;;;;;;;20.20;63.20;;;;;;5060934;28;20453;-53
2023/07/27 05:51:23;;;;;;;;;;;20.20;63.20;;;;;;5058024;28;20400;-53
2023/07/27 05:53:48;;;;;;;;;;;20.20;63.20;;;;;;5054335;28;19912;-53
2023/07/27 05:56:13;;;;;;;;;;;20.20;63.20;;;;;;5058373;28;19971;-53
2023/07/27 05:58:39;;;;;;;;;;;20.20;63.10;;;;;;5055604;28;19913;-53
2023/07/27 06:01:04;;;;;;;;;;;20.20;63.10;;;;;;5056720;28;19920;-53
2023/07/27 06:03:30;;;;;;;;;;;20.20;63.20;;;;;;5066461;28;19944;-53
2023/07/27 06:05:55;;;;;;;;;;;20.20;63.30;;;;;;5055722;28;20012;-53
2023/07/27 06:08:21;;;;;;;;;;;20.20;63.20;;;;;;5058924;28;19916;-53
2023/07/27 06:10:46;;;;;;;;;;;20.20;63.20;;;;;;5055408;28;19921;-53
2023/07/27 06:13:12;;;;;;;;;;;20.20;63.20;;;;;;5050083;28;19921;-53
2023/07/27 06:15:38;;;;;;;;;;;20.20;63.10;;;;;;5052417;28;19925;-53
2023/07/27 06:18:04;;;;;;;;;;;20.20;63.20;;;;;;5051553;28;19920;-54
2023/07/27 06:20:29;;;;;;;;;;;20.20;63.20;;;;;;5058855;28;19912;-53
2023/07/27 06:22:54;;;;;;;;;;;20.20;63.20;;;;;;5054279;28;19916;-53
2023/07/27 06:25:20;;;;;;;;;;;20.20;63.20;;;;;;5052727;28;20286;-53
2023/07/27 06:27:45;;;;;;;;;;;20.20;63.30;;;;;;5067142;28;19912;-54
2023/07/27 06:30:12;;;;;;;;;;;20.20;63.40;;;;;;5054780;28;19912;-53
2023/07/27 06:32:38;;;;;;;;;;;20.20;63.20;;;;;;5057537;28;19927;-53
2023/07/27 06:35:03;;;;;;;;;;;20.20;63.50;;;;;;5069052;28;19913;-53
2023/07/27 06:37:29;;;;;;;;;;;20.20;63.40;;;;;;5053971;28;19909;-53
2023/07/27 06:39:54;;;;;;;;;;;20.20;63.40;;;;;;5053006;28;19978;-53
2023/07/27 06:42:20;;;;;;;;;;;20.20;63.40;;;;;;5061026;28;19973;-52
2023/07/27 06:44:45;;;;;;;;;;;20.20;63.40;;;;;;5057636;28;19956;-52
2023/07/27 06:47:11;;;;;;;;;;;20.20;63.30;;;;;;5058566;28;19921;-54
2023/07/27 06:49:36;;;;;;;;;;;20.20;63.40;;;;;;5060194;28;19958;-53
2023/07/27 06:52:02;;;;;;;;;;;20.20;63.40;;;;;;5053405;28;19928;-53
2023/07/27 06:54:27;;;;;;;;;;;20.20;63.60;;;;;;5055900;28;20042;-53
2023/07/27 06:56:53;;;;;;;;;;;20.20;63.60;;;;;;5059171;28;20374;-53
2023/07/27 06:59:19;;;;;;;;;;;20.20;63.60;;;;;;5052963;28;20382;-53
2023/07/27 07:01:44;;;;;;;;;;;20.20;63.70;;;;;;5054470;28;19917;-52
2023/07/27 07:04:10;;;;;;;;;;;20.20;63.70;;;;;;5059562;28;19919;-53
2023/07/27 07:06:35;;;;;;;;;;;20.20;63.80;;;;;;5071857;28;20024;-52
2023/07/27 07:09:01;;;;;;;;;;;20.20;63.70;;;;;;5057191;28;19974;-53
2023/07/27 07:11:26;;;;;;;;;;;20.30;63.80;;;;;;5056421;28;19917;-52
2023/07/27 07:13:51;;;;;;;;;;;20.20;64.50;;;;;;5066468;28;19916;-53
2023/07/27 07:16:18;;;;;;;;;;;20.30;63.90;;;;;;5066320;28;20011;-53
2023/07/27 07:18:43;;;;;;;;;;;20.20;63.90;;;;;;5052803;28;19913;-55
2023/07/27 07:21:09;;;;;;;;;;;20.20;64.10;;;;;;5054831;28;20393;-53
2023/07/27 07:23:34;;;;;;;;;;;20.20;64.00;;;;;;5056835;28;19969;-53
2023/07/27 07:26:00;;;;;;;;;;;20.20;64.00;;;;;;5058599;28;19999;-52
2023/07/27 07:28:25;;;;;;;;;;;20.20;64.10;;;;;;5054429;28;19955;-53
2023/07/27 07:30:51;;;;;;;;;;;20.20;64.20;;;;;;5054696;28;19917;-53
2023/07/27 07:33:16;;;;;;;;;;;20.20;64.20;;;;;;5066766;28;19969;-53
2023/07/27 07:35:42;;;;;;;;;;;20.20;64.10;;;;;;5072602;28;20289;-53
2023/07/27 07:38:07;;;;;;;;;;;20.20;64.30;;;;;;5054185;28;19935;-53
2023/07/27 07:40:33;;;;;;;;;;;20.20;64.40;;;;;;5056777;28;19912;-54
2023/07/27 07:42:58;;;;;;;;;;;20.20;64.50;;;;;;5053983;28;19913;-53
2023/07/27 07:45:24;;;;;;;;;;;20.20;64.40;;;;;;5072778;28;19909;-54
2023/07/27 07:47:49;;;;;;;;;;;20.20;64.60;;;;;;5072548;28;19917;-51
2023/07/27 07:50:15;;;;;;;;;;;20.20;64.40;;;;;;5059700;28;20303;-53
2023/07/27 07:52:40;;;;;;;;;;;20.20;64.50;;;;;;5052658;28;20321;-53
2023/07/27 07:55:08;;;;;;;;;;;20.20;64.50;;;;;;5062966;28;21297;-54
2023/07/27 07:57:33;;;;;;;;;;;20.20;64.50;;;;;;5053030;28;20023;-54
2023/07/27 07:59:58;;;;;;;;;;;20.20;64.50;;;;;;5051981;28;19913;-54
2023/07/27 08:02:24;;;;;;;;;;;20.20;64.40;;;;;;5051763;28;19920;-53
2023/07/27 08:04:49;;;;;;;;;;;20.20;64.40;;;;;;5064585;28;19921;-54
2023/07/27 08:07:15;;;;;;;;;;;20.20;64.60;;;;;;5061849;28;20419;-53
2023/07/27 08:09:41;;;;;;;;;;;20.20;64.60;;;;;;5062622;28;19912;-54
2023/07/27 08:12:06;;;;;;;;;;;20.20;64.60;;;;;;5054321;28;19974;-53
2023/07/27 08:14:32;;;;;;;;;;;20.20;64.90;;;;;;5051110;28;19952;-54
2023/07/27 08:16:58;;;;;;;;;;;20.20;64.90;;;;;;5051350;28;19916;-54
2023/07/27 08:19:23;;;;;;;;;;;20.20;64.90;;;;;;5051265;28;19921;-54
2023/07/27 08:21:49;;;;;;;;;;;20.20;65.00;;;;;;5054348;28;19920;-55
2023/07/27 08:24:14;;;;;;;;;;;20.20;65.10;;;;;;5067707;28;20315;-54
2023/07/27 08:26:39;;;;;;;;;;;20.20;65.20;;;;;;5052152;28;20316;-53
2023/07/27 08:29:05;;;;;;;;;;;20.20;64.90;;;;;;5055834;28;19960;-53
2023/07/27 08:31:30;;;;;;;;;;;20.20;65.30;;;;;;5064166;28;19916;-53
2023/07/27 08:33:56;;;;;;;;;;;20.20;65.30;;;;;;5065494;28;20474;-54
2023/07/27 08:36:21;;;;;;;;;;;20.20;65.10;;;;;;5058464;28;21295;-54
2023/07/27 08:38:47;;;;;;;;;;;20.20;65.10;;;;;;5051756;28;19917;-53
2023/07/27 08:41:12;;;;;;;;;;;20.20;65.20;;;;;;5064728;28;19924;-53
2023/07/27 08:43:38;;;;;;;;;;;20.20;65.10;;;;;;5051107;28;19952;-54
2023/07/27 08:46:03;;;;;;;;;;;20.20;65.00;;;;;;5050972;28;19916;-54
2023/07/27 08:48:29;;;;;;;;;;;20.30;65.10;;;;;;5056274;28;19912;-54
2023/07/27 08:50:54;;;;;;;;;;;20.30;65.10;;;;;;5049854;28;19936;-53
2023/07/27 08:53:20;;;;;;;;;;;20.30;65.20;;;;;;5050441;28;19913;-54
2023/07/27 08:55:45;;;;;;;;;;;20.30;65.20;;;;;;5059515;28;19916;-54
2023/07/27 08:58:11;;;;;;;;;;;20.30;65.10;;;;;;5058203;28;19923;-54
2023/07/27 09:00:38;;;;;;;;;;;20.30;65.60;;;;;;5051362;28;19908;-54
2023/07/27 09:03:04;;;;;;;;;;;20.30;65.50;;;;;;5054237;28;19917;-53
2023/07/27 09:05:52;;;;;;;;;;;20.20;65.40;;;;;;5061532;28;19919;-54
2023/07/27 09:08:18;;;;;;;;;;;20.30;65.60;;;;;;5057607;28;19917;-54
2023/07/27 09:10:43;;;;;;;;;;;20.30;65.30;;;;;;5050420;28;19923;-54
2023/07/27 09:13:08;;;;;;;;;;;20.30;65.60;;;;;;5051035;28;19963;-53
2023/07/27 09:15:34;;;;;;;;;;;20.30;65.60;;;;;;5050963;28;19916;-54
2023/07/27 09:18:01;;;;;;;;;;;20.30;65.70;;;;;;5057757;28;19992;-54
2023/07/27 09:20:30;;;;;;;;;;;20.30;65.80;;;;;;5061402;28;20346;-54
2023/07/27 09:22:56;;;;;;;;;;;20.30;65.80;;;;;;5054601;28;19962;-54
2023/07/27 09:25:22;;;;;;;;;;;20.30;65.60;;;;;;5060093;28;20386;-54
2023/07/27 09:27:48;;;;;;;;;;;20.30;65.90;;;;;;5063198;28;20031;-54
2023/07/27 09:30:16;;;;;;;;;;;20.30;65.70;;;;;;5053303;28;20369;-54
2023/07/27 09:32:41;;;;;;;;;;;20.30;65.80;;;;;;5056928;28;20397;-54
2023/07/27 09:35:11;;;;;;;;;;;20.30;66.00;;;;;;5067118;28;19966;-54
2023/07/27 09:37:37;;;;;;;;;;;20.30;65.70;;;;;;5058214;28;19919;-54
2023/07/27 09:40:09;;;;;;;;;;;20.30;65.90;;;;;;5058710;28;20353;-54
2023/07/27 09:42:34;;;;;;;;;;;20.30;65.90;;;;;;5060270;28;19920;-54
2023/07/27 09:45:00;;;;;;;;;;;20.30;65.80;;;;;;5067084;28;19920;-54
2023/07/27 09:47:30;;;;;;;;;;;20.30;66.30;;;;;;5056706;28;19921;-54
2023/07/27 09:50:02;;;;;;;;;;;20.30;66.20;;;;;;5061130;28;20339;-54
2023/07/27 09:52:28;;;;;;;;;;;20.30;66.50;;;;;;5054176;28;19916;-54
2023/07/27 09:54:59;;;;;;;;;;;20.30;66.60;;;;;;5057910;28;19915;-54
2023/07/27 09:57:25;;;;;;;;;;;20.30;66.70;;;;;;5060111;28;20430;-53
2023/07/27 09:59:51;;;;;;;;;;;20.30;66.70;;;;;;5068385;28;19912;-53
2023/07/27 10:02:16;;;;;;;;;;;20.30;66.70;;;;;;5066066;28;19977;-53
2023/07/27 10:04:42;;;;;;;;;;;20.30;66.40;;;;;;5054555;28;19925;-54
2023/07/27 10:07:08;;;;;;;;;;;20.30;66.60;;;;;;5069221;28;20433;-53
2023/07/27 10:09:33;;;;;;;;;;;20.30;66.50;;;;;;5060065;28;19920;-54
2023/07/27 10:12:03;;;;;;;;;;;20.30;66.80;;;;;;5058985;28;19923;-54
2023/07/27 10:14:29;;;;;;;;;;;20.30;66.70;;;;;;5060962;28;20398;-54
2023/07/27 10:17:01;;;;;;;;;;;20.30;66.70;;;;;;5053893;28;20004;-54
2023/07/27 10:19:40;;;;;;;;;;;20.30;66.70;;;;;;5063358;28;19916;-54
2023/07/27 10:22:07;;;;;;;;;;;20.30;66.90;;;;;;5059964;28;19955;-54
2023/07/27 10:24:45;;;;;;;;;;;20.30;66.70;;;;;;5061628;28;19916;-55
2023/07/27 10:27:11;;;;;;;;;;;20.30;66.90;;;;;;5056910;28;19917;-55
2023/07/27 10:29:36;;;;;;;;;;;20.30;67.20;;;;;;5060482;28;19916;-55
2023/07/27 10:32:03;;;;;;;;;;;20.30;67.20;;;;;;5057532;28;19920;-55
2023/07/27 10:34:29;;;;;;;;;;;20.30;67.30;;;;;;5058783;28;19908;-54
2023/07/27 10:36:58;;;;;;;;;;;20.30;67.10;;;;;;5056840;28;19919;-54
2023/07/27 10:39:33;;;;;;;;;;;20.40;67.40;;;;;;5059781;28;19913;-55
2023/07/27 10:41:59;;;;;;;;;;;20.30;67.20;;;;;;5057229;28;19920;-54
2023/07/27 10:44:43;;;;;;;;;;;20.30;67.40;;;;;;5056967;28;20401;-55
2023/07/27 10:47:09;;;;;;;;;;;20.30;67.60;;;;;;5055770;28;19921;-55
2023/07/27 10:49:38;;;;;;;;;;;20.30;67.50;;;;;;5059719;28;19920;-55
2023/07/27 10:52:04;;;;;;;;;;;20.30;67.50;;;;;;5054122;28;19917;-55
2023/07/27 10:54:30;;;;;;;;;;;20.40;67.60;;;;;;5056708;28;19934;-55
2023/07/27 10:56:55;;;;;;;;;;;20.40;67.50;;;;;;5053214;28;19920;-54
2023/07/27 10:59:21;;;;;;;;;;;20.40;68.10;;;;;;5052920;28;19916;-55
2023/07/27 11:01:47;;;;;;;;;;;20.40;68.30;;;;;;5057941;28;19919;-55
2023/07/27 11:04:12;;;;;;;;;;;20.40;68.40;;;;;;5052834;28;19923;-55
2023/07/27 11:06:42;;;;;;;;;;;20.40;68.50;;;;;;5056248;28;19913;-53
2023/07/27 11:09:11;;;;;;;;;;;20.40;68.30;;;;;;5052458;28;20364;-53
2023/07/27 11:11:37;;;;;;;;;;;20.40;67.30;;;;;;5060714;28;19925;-55
2023/07/27 11:14:06;;;;;;;;;;;20.40;67.00;;;;;;5055341;28;19921;-55
2023/07/27 11:16:32;;;;;;;;;;;20.40;67.20;;;;;;5051178;28;19939;-55
2023/07/27 11:19:00;;;;;;;;;;;20.50;67.90;;;;;;5052790;28;19916;-55
2023/07/27 11:21:25;;;;;;;;;;;20.50;68.10;;;;;;5063857;28;20289;-55
2023/07/27 11:23:51;;;;;;;;;;;20.40;68.00;;;;;;5052724;28;19912;-53
2023/07/27 11:26:16;;;;;;;;;;;20.50;67.30;;;;;;5067233;28;20270;-53
2023/07/27 11:28:42;;;;;;;;;;;20.50;67.80;;;;;;5062367;28;20357;-53
2023/07/27 11:31:07;;;;;;;;;;;20.50;68.40;;;;;;5051297;28;20330;-52
2023/07/27 11:33:33;;;;;;;;;;;20.50;68.30;;;;;;5051885;28;19912;-54
2023/07/27 11:36:00;;;;;;;;;;;20.50;68.10;;;;;;5054782;28;19956;-54
2023/07/27 11:38:26;;;;;;;;;;;20.50;67.40;;;;;;5053127;28;19917;-54
2023/07/27 11:40:52;;;;;;;;;;;20.50;68.10;;;;;;5052324;28;20400;-53
2023/07/27 11:43:17;;;;;;;;;;;20.50;67.70;;;;;;5049811;28;19955;-53
2023/07/27 11:45:43;;;;;;;;;;;20.50;68.20;;;;;;5054996;28;19956;-53
2023/07/27 11:48:09;;;;;;;;;;;20.50;68.30;;;;;;5053580;28;19969;-53
2023/07/27 11:50:37;;;;;;;;;;;20.50;68.40;;;;;;5055098;28;19966;-53
2023/07/27 11:53:05;;;;;;;;;;;20.50;68.40;;;;;;5055750;28;19908;-53
2023/07/27 11:55:37;;;;;;;;;;;20.50;68.30;;;;;;5062745;28;19970;-53
2023/07/27 11:58:11;;;;;;;;;;;20.50;68.10;;;;;;5051640;28;19913;-53
2023/07/27 12:00:37;;;;;;;;;;;20.50;68.10;;;;;;5053754;28;19919;-54
2023/07/27 12:03:02;;;;;;;;;;;20.50;67.60;;;;;;5061424;28;20018;-53
2023/07/27 12:05:28;;;;;;;;;;;20.50;67.60;;;;;;5061392;28;19912;-54
2023/07/27 12:07:54;;;;;;;;;;;20.50;68.10;;;;;;5049790;28;19913;-53
2023/07/27 12:10:20;;;;;;;;;;;20.50;68.60;;;;;;5051300;28;19913;-53
2023/07/27 12:13:01;;;;;;;;;;;20.40;69.30;;;;;;5052407;28;19955;-53
2023/07/27 12:15:30;;;;;;;;;;;20.50;69.00;;;;;;5049179;28;19912;-53
2023/07/27 12:17:56;;;;;;;;;;;20.50;69.20;;;;;;5047700;28;19928;-53
2023/07/27 12:20:25;;;;;;;;;;;20.50;69.00;;;;;;5059368;28;20475;-53
2023/07/27 12:22:50;;;;;;;;;;;20.50;69.80;;;;;;5067162;28;19909;-53
2023/07/27 12:25:16;;;;;;;;;;;20.50;68.80;;;;;;5056986;28;20262;-53
2023/07/27 12:27:41;;;;;;;;;;;20.60;68.80;;;;;;5056200;28;19913;-54
2023/07/27 12:30:07;;;;;;;;;;;20.60;68.50;;;;;;5055952;28;19912;-54
2023/07/27 12:32:33;;;;;;;;;;;20.60;68.00;;;;;;5063753;28;20391;-53
2023/07/27 12:34:59;;;;;;;;;;;20.60;68.50;;;;;;5050183;28;19963;-53
2023/07/27 12:37:24;;;;;;;;;;;20.60;68.40;;;;;;5051076;28;20467;-53
2023/07/27 12:39:49;;;;;;;;;;;20.60;68.30;;;;;;5051254;28;19912;-53
2023/07/27 12:42:15;;;;;;;;;;;20.60;68.30;;;;;;5051672;28;20381;-53
2023/07/27 12:44:40;;;;;;;;;;;20.60;68.30;;;;;;5063639;28;20323;-53
2023/07/27 12:47:06;;;;;;;;;;;20.60;68.40;;;;;;5054559;28;20434;-52
2023/07/27 12:49:31;;;;;;;;;;;20.60;68.20;;;;;;5059739;28;19925;-53
2023/07/27 12:51:57;;;;;;;;;;;20.60;68.10;;;;;;5053293;28;19920;-53
2023/07/27 12:54:23;;;;;;;;;;;20.60;68.30;;;;;;5059361;28;19916;-52
2023/07/27 12:56:48;;;;;;;;;;;20.60;67.70;;;;;;5055619;28;19908;-53
2023/07/27 12:59:14;;;;;;;;;;;20.60;68.50;;;;;;5058643;28;19951;-53
2023/07/27 13:01:39;;;;;;;;;;;20.60;68.60;;;;;;5059482;28;20008;-53
2023/07/27 13:04:04;;;;;;;;;;;20.60;68.60;;;;;;5057955;28;19935;-53
2023/07/27 13:06:30;;;;;;;;;;;20.60;68.60;;;;;;5059753;28;19912;-54
2023/07/27 13:08:55;;;;;;;;;;;20.60;69.10;;;;;;5056908;28;19917;-53
2023/07/27 13:11:21;;;;;;;;;;;20.50;68.70;;;;;;5062926;28;19956;-53
2023/07/27 13:13:46;;;;;;;;;;;20.50;68.90;;;;;;5069658;28;19920;-53
2023/07/27 13:16:12;;;;;;;;;;;20.50;69.00;;;;;;5060103;28;20414;-52
2023/07/27 13:18:37;;;;;;;;;;;20.50;69.00;;;;;;5055704;28;20308;-53
2023/07/27 13:21:03;;;;;;;;;;;20.40;68.80;;;;;;5058856;28;19952;-53
2023/07/27 13:23:28;;;;;;;;;;;20.50;69.10;;;;;;5060742;28;19966;-53
2023/07/27 13:25:54;;;;;;;;;;;20.50;69.20;;;;;;5055894;28;19927;-53
2023/07/27 13:28:19;;;;;;;;;;;20.50;69.00;;;;;;5064099;28;20019;-53
2023/07/27 13:30:45;;;;;;;;;;;20.50;68.80;;;;;;5063693;28;19960;-53
2023/07/27 13:33:10;;;;;;;;;;;20.50;69.00;;;;;;5070631;28;20372;-55
2023/07/27 13:35:37;;;;;;;;;;;20.50;69.00;;;;;;5058413;28;20444;-53
2023/07/27 13:38:03;;;;;;;;;;;20.50;69.20;;;;;;5066681;28;19948;-53
2023/07/27 13:40:28;;;;;;;;;;;20.50;69.20;;;;;;5063736;28;19936;-54
2023/07/27 13:42:54;;;;;;;;;;;20.50;69.10;;;;;;5054607;28;19916;-54
2023/07/27 13:45:19;;;;;;;;;;;20.50;69.10;;;;;;5065411;28;19962;-53
2023/07/27 13:47:46;;;;;;;;;;;20.50;69.10;;;;;;5054365;28;20413;-54
2023/07/27 13:50:11;;;;;;;;;;;20.50;69.40;;;;;;5061432;28;19913;-54
2023/07/27 13:52:37;;;;;;;;;;;20.50;69.20;;;;;;5063081;28;19924;-54
2023/07/27 13:55:04;;;;;;;;;;;20.50;69.10;;;;;;5051037;28;19917;-54
2023/07/27 13:57:30;;;;;;;;;;;20.50;69.10;;;;;;5056428;28;19935;-53
2023/07/27 13:59:56;;;;;;;;;;;20.50;69.10;;;;;;5053580;28;19917;-54
2023/07/27 14:02:21;;;;;;;;;;;20.50;68.80;;;;;;5054023;28;19913;-54
2023/07/27 14:04:47;;;;;;;;;;;20.50;68.90;;;;;;5054020;28;19915;-54
2023/07/27 14:07:12;;;;;;;;;;;20.50;68.90;;;;;;5055929;28;19932;-54
2023/07/27 14:09:37;;;;;;;;;;;20.50;68.90;;;;;;5059403;28;20359;-54